sensor_id;sensor_type;location;lat;lon;timestamp;P1;durP1;ratioP1;P2;durP2;ratioP2
25637;SDS011;13496;51.040;13.680;2023-03-01T00:04:44;6.77;;;6.17;;
25637;SDS011;13496;51.040;13.680;2023-03-01T00:09:45;7.33;;;6.63;;
25637;SDS011;13496;51.040;13.680;2023-03-01T00:14:47;6.97;;;6.23;;
25637;SDS011;13496;51.040;13.680;2023-03-01T00:19:49;7.10;;;5.50;;
25637;SDS011;13496;51.040;13.680;2023-03-01T00:24:50;6.80;;;6.20;;
25637;SDS011;13496;51.040;13.680;2023-03-01T00:29:52;7.97;;;6.30;;
25637;SDS011;13496;51.040;13.680;2023-03-01T00:34:54;7.00;;;6.30;;
25637;SDS011;13496;51.040;13.680;2023-03-01T00:39:56;7.00;;;6.30;;
25637;SDS011;13496;51.040;13.680;2023-03-01T00:44:58;6.43;;;5.83;;
25637;SDS011;13496;51.040;13.680;2023-03-01T00:50:00;5.90;;;5.40;;
25637;SDS011;13496;51.040;13.680;2023-03-01T00:55:01;6.37;;;5.77;;
25637;SDS011;13496;51.040;13.680;2023-03-01T01:00:04;6.50;;;5.90;;
25637;SDS011;13496;51.040;13.680;2023-03-01T01:05:07;7.03;;;6.33;;
25637;SDS011;13496;51.040;13.680;2023-03-01T01:10:09;6.60;;;5.97;;
25637;SDS011;13496;51.040;13.680;2023-03-01T01:15:18;7.50;;;6.43;;
25637;SDS011;13496;51.040;13.680;2023-03-01T01:20:20;6.93;;;6.30;;
25637;SDS011;13496;51.040;13.680;2023-03-01T01:25:22;6.27;;;5.67;;
25637;SDS011;13496;51.040;13.680;2023-03-01T01:30:26;6.50;;;5.80;;
25637;SDS011;13496;51.040;13.680;2023-03-01T01:35:27;6.63;;;6.03;;
25637;SDS011;13496;51.040;13.680;2023-03-01T01:40:29;6.87;;;6.17;;
25637;SDS011;13496;51.040;13.680;2023-03-01T01:45:32;6.70;;;6.10;;
25637;SDS011;13496;51.040;13.680;2023-03-01T01:50:36;6.60;;;6.00;;
25637;SDS011;13496;51.040;13.680;2023-03-01T01:55:43;6.37;;;5.87;;
25637;SDS011;13496;51.040;13.680;2023-03-01T02:00:49;6.63;;;6.03;;
25637;SDS011;13496;51.040;13.680;2023-03-01T02:05:53;7.50;;;6.70;;
25637;SDS011;13496;51.040;13.680;2023-03-01T02:11:02;6.57;;;5.87;;
25637;SDS011;13496;51.040;13.680;2023-03-01T02:16:11;6.80;;;6.20;;
25637;SDS011;13496;51.040;13.680;2023-03-01T02:21:17;6.67;;;6.07;;
25637;SDS011;13496;51.040;13.680;2023-03-01T02:26:32;6.53;;;5.93;;
25637;SDS011;13496;51.040;13.680;2023-03-01T02:31:43;6.40;;;5.83;;
25637;SDS011;13496;51.040;13.680;2023-03-01T02:36:47;6.47;;;5.87;;
25637;SDS011;13496;51.040;13.680;2023-03-01T02:41:54;6.43;;;5.83;;
25637;SDS011;13496;51.040;13.680;2023-03-01T02:46:59;6.63;;;6.03;;
25637;SDS011;13496;51.040;13.680;2023-03-01T02:57:39;6.63;;;6.03;;
25637;SDS011;13496;51.040;13.680;2023-03-01T03:02:43;6.40;;;5.80;;
25637;SDS011;13496;51.040;13.680;2023-03-01T03:07:53;5.73;;;5.10;;
25637;SDS011;13496;51.040;13.680;2023-03-01T03:13:03;6.30;;;5.70;;
25637;SDS011;13496;51.040;13.680;2023-03-01T03:18:09;6.57;;;5.77;;
25637;SDS011;13496;51.040;13.680;2023-03-01T03:23:13;6.93;;;6.17;;
25637;SDS011;13496;51.040;13.680;2023-03-01T03:28:15;6.43;;;5.83;;
25637;SDS011;13496;51.040;13.680;2023-03-01T03:33:17;6.13;;;5.63;;
25637;SDS011;13496;51.040;13.680;2023-03-01T03:38:19;6.53;;;5.93;;
25637;SDS011;13496;51.040;13.680;2023-03-01T03:43:23;7.30;;;5.80;;
25637;SDS011;13496;51.040;13.680;2023-03-01T03:48:25;5.90;;;5.40;;
25637;SDS011;13496;51.040;13.680;2023-03-01T03:53:27;6.60;;;6.00;;
25637;SDS011;13496;51.040;13.680;2023-03-01T03:58:30;6.13;;;5.53;;
25637;SDS011;13496;51.040;13.680;2023-03-01T04:03:32;6.63;;;6.00;;
25637;SDS011;13496;51.040;13.680;2023-03-01T04:08:34;6.50;;;5.90;;
25637;SDS011;13496;51.040;13.680;2023-03-01T04:13:36;6.63;;;5.93;;
25637;SDS011;13496;51.040;13.680;2023-03-01T04:18:37;6.20;;;5.60;;
25637;SDS011;13496;51.040;13.680;2023-03-01T04:23:39;6.17;;;5.60;;
25637;SDS011;13496;51.040;13.680;2023-03-01T04:28:42;6.23;;;5.63;;
25637;SDS011;13496;51.040;13.680;2023-03-01T04:33:50;6.23;;;5.73;;
25637;SDS011;13496;51.040;13.680;2023-03-01T04:38:54;6.40;;;5.80;;
25637;SDS011;13496;51.040;13.680;2023-03-01T04:43:56;5.97;;;5.37;;
25637;SDS011;13496;51.040;13.680;2023-03-01T04:48:58;5.97;;;5.43;;
25637;SDS011;13496;51.040;13.680;2023-03-01T04:53:59;6.60;;;6.00;;
25637;SDS011;13496;51.040;13.680;2023-03-01T04:59:01;6.30;;;5.70;;
25637;SDS011;13496;51.040;13.680;2023-03-01T05:04:06;6.50;;;5.90;;
25637;SDS011;13496;51.040;13.680;2023-03-01T05:09:08;6.00;;;5.50;;
25637;SDS011;13496;51.040;13.680;2023-03-01T05:14:10;6.20;;;5.60;;
25637;SDS011;13496;51.040;13.680;2023-03-01T05:19:12;5.83;;;5.33;;
25637;SDS011;13496;51.040;13.680;2023-03-01T05:24:16;6.07;;;5.47;;
25637;SDS011;13496;51.040;13.680;2023-03-01T05:29:21;7.33;;;5.83;;
25637;SDS011;13496;51.040;13.680;2023-03-01T05:34:35;6.33;;;5.70;;
25637;SDS011;13496;51.040;13.680;2023-03-01T05:39:37;6.10;;;5.50;;
25637;SDS011;13496;51.040;13.680;2023-03-01T05:44:39;6.90;;;6.03;;
25637;SDS011;13496;51.040;13.680;2023-03-01T05:49:40;6.57;;;5.83;;
25637;SDS011;13496;51.040;13.680;2023-03-01T05:54:42;6.07;;;5.43;;
25637;SDS011;13496;51.040;13.680;2023-03-01T05:59:45;5.63;;;5.03;;
25637;SDS011;13496;51.040;13.680;2023-03-01T06:04:50;6.43;;;5.83;;
25637;SDS011;13496;51.040;13.680;2023-03-01T06:09:51;6.00;;;5.43;;
25637;SDS011;13496;51.040;13.680;2023-03-01T06:14:53;6.40;;;5.70;;
25637;SDS011;13496;51.040;13.680;2023-03-01T06:19:55;6.10;;;5.50;;
25637;SDS011;13496;51.040;13.680;2023-03-01T06:24:56;6.33;;;5.40;;
25637;SDS011;13496;51.040;13.680;2023-03-01T06:29:58;5.87;;;5.37;;
25637;SDS011;13496;51.040;13.680;2023-03-01T06:35:00;6.97;;;5.53;;
25637;SDS011;13496;51.040;13.680;2023-03-01T06:40:02;6.33;;;5.73;;
25637;SDS011;13496;51.040;13.680;2023-03-01T06:45:12;6.37;;;5.40;;
25637;SDS011;13496;51.040;13.680;2023-03-01T06:50:14;6.00;;;5.40;;
25637;SDS011;13496;51.040;13.680;2023-03-01T06:55:16;6.40;;;5.80;;
25637;SDS011;13496;51.040;13.680;2023-03-01T07:00:18;5.97;;;5.40;;
25637;SDS011;13496;51.040;13.680;2023-03-01T07:05:20;7.27;;;5.73;;
25637;SDS011;13496;51.040;13.680;2023-03-01T07:10:22;6.30;;;5.30;;
25637;SDS011;13496;51.040;13.680;2023-03-01T07:15:24;6.23;;;5.63;;
25637;SDS011;13496;51.040;13.680;2023-03-01T07:20:27;6.40;;;5.30;;
25637;SDS011;13496;51.040;13.680;2023-03-01T07:25:29;5.93;;;5.07;;
25637;SDS011;13496;51.040;13.680;2023-03-01T07:30:31;6.77;;;5.60;;
25637;SDS011;13496;51.040;13.680;2023-03-01T07:35:33;6.93;;;5.30;;
25637;SDS011;13496;51.040;13.680;2023-03-01T07:40:34;6.33;;;5.73;;
25637;SDS011;13496;51.040;13.680;2023-03-01T07:45:36;5.87;;;5.30;;
25637;SDS011;13496;51.040;13.680;2023-03-01T07:50:38;6.83;;;5.37;;
25637;SDS011;13496;51.040;13.680;2023-03-01T07:55:40;5.50;;;5.00;;
25637;SDS011;13496;51.040;13.680;2023-03-01T08:00:41;5.97;;;5.37;;
25637;SDS011;13496;51.040;13.680;2023-03-01T08:05:43;6.03;;;5.50;;
25637;SDS011;13496;51.040;13.680;2023-03-01T08:10:44;6.03;;;5.43;;
25637;SDS011;13496;51.040;13.680;2023-03-01T08:15:46;5.63;;;5.13;;
25637;SDS011;13496;51.040;13.680;2023-03-01T08:20:48;5.90;;;5.33;;
25637;SDS011;13496;51.040;13.680;2023-03-01T08:25:49;6.20;;;5.60;;
25637;SDS011;13496;51.040;13.680;2023-03-01T08:30:51;5.60;;;5.10;;
25637;SDS011;13496;51.040;13.680;2023-03-01T08:36:01;6.00;;;5.40;;
25637;SDS011;13496;51.040;13.680;2023-03-01T08:41:04;6.03;;;5.07;;
25637;SDS011;13496;51.040;13.680;2023-03-01T08:46:05;6.10;;;5.40;;
25637;SDS011;13496;51.040;13.680;2023-03-01T08:51:08;6.00;;;5.23;;
25637;SDS011;13496;51.040;13.680;2023-03-01T08:56:15;5.97;;;5.13;;
25637;SDS011;13496;51.040;13.680;2023-03-01T09:01:18;5.77;;;5.23;;
25637;SDS011;13496;51.040;13.680;2023-03-01T09:06:20;6.90;;;4.93;;
25637;SDS011;13496;51.040;13.680;2023-03-01T09:11:22;5.40;;;4.90;;
25637;SDS011;13496;51.040;13.680;2023-03-01T09:16:23;5.50;;;5.00;;
25637;SDS011;13496;51.040;13.680;2023-03-01T09:21:25;5.80;;;5.20;;
25637;SDS011;13496;51.040;13.680;2023-03-01T09:26:27;6.20;;;5.60;;
25637;SDS011;13496;51.040;13.680;2023-03-01T09:31:28;6.03;;;5.30;;
25637;SDS011;13496;51.040;13.680;2023-03-01T09:36:30;5.97;;;5.37;;
25637;SDS011;13496;51.040;13.680;2023-03-01T09:46:48;5.50;;;5.00;;
25637;SDS011;13496;51.040;13.680;2023-03-01T09:51:54;5.80;;;5.30;;
25637;SDS011;13496;51.040;13.680;2023-03-01T10:02:31;5.60;;;5.00;;
25637;SDS011;13496;51.040;13.680;2023-03-01T10:08:02;5.67;;;5.17;;
25637;SDS011;13496;51.040;13.680;2023-03-01T10:18:59;5.50;;;5.00;;
25637;SDS011;13496;51.040;13.680;2023-03-01T10:24:13;6.00;;;5.50;;
25637;SDS011;13496;51.040;13.680;2023-03-01T10:29:17;6.20;;;5.10;;
25637;SDS011;13496;51.040;13.680;2023-03-01T10:34:28;5.27;;;4.63;;
25637;SDS011;13496;51.040;13.680;2023-03-01T10:39:31;5.67;;;5.17;;
25637;SDS011;13496;51.040;13.680;2023-03-01T10:44:37;5.97;;;5.47;;
25637;SDS011;13496;51.040;13.680;2023-03-01T10:49:43;6.40;;;5.60;;
25637;SDS011;13496;51.040;13.680;2023-03-01T10:55:01;5.73;;;5.23;;
25637;SDS011;13496;51.040;13.680;2023-03-01T11:00:22;5.57;;;5.07;;
25637;SDS011;13496;51.040;13.680;2023-03-01T11:05:26;5.50;;;4.93;;
25637;SDS011;13496;51.040;13.680;2023-03-01T11:10:32;5.70;;;5.20;;
25637;SDS011;13496;51.040;13.680;2023-03-01T11:15:35;6.07;;;5.47;;
25637;SDS011;13496;51.040;13.680;2023-03-01T11:20:37;5.17;;;4.67;;
25637;SDS011;13496;51.040;13.680;2023-03-01T11:25:41;5.27;;;4.77;;
25637;SDS011;13496;51.040;13.680;2023-03-01T11:30:53;5.60;;;5.20;;
25637;SDS011;13496;51.040;13.680;2023-03-01T11:35:59;5.50;;;5.00;;
25637;SDS011;13496;51.040;13.680;2023-03-01T11:41:06;5.47;;;4.97;;
25637;SDS011;13496;51.040;13.680;2023-03-01T12:18:56;5.13;;;4.70;;
25637;SDS011;13496;51.040;13.680;2023-03-01T12:24:08;5.40;;;4.90;;
25637;SDS011;13496;51.040;13.680;2023-03-01T12:35:11;5.43;;;5.00;;
25637;SDS011;13496;51.040;13.680;2023-03-01T12:40:41;5.07;;;4.57;;
25637;SDS011;13496;51.040;13.680;2023-03-01T12:45:54;5.30;;;4.80;;
25637;SDS011;13496;51.040;13.680;2023-03-01T12:51:08;5.30;;;4.80;;
25637;SDS011;13496;51.040;13.680;2023-03-01T12:56:24;5.23;;;4.77;;
25637;SDS011;13496;51.040;13.680;2023-03-01T13:07:02;5.43;;;4.93;;
25637;SDS011;13496;51.040;13.680;2023-03-01T13:18:00;5.47;;;4.97;;
25637;SDS011;13496;51.040;13.680;2023-03-01T13:23:07;4.90;;;4.40;;
25637;SDS011;13496;51.040;13.680;2023-03-01T13:33:54;5.33;;;4.83;;
25637;SDS011;13496;51.040;13.680;2023-03-01T13:44:34;5.37;;;4.87;;
25637;SDS011;13496;51.040;13.680;2023-03-01T13:55:01;4.60;;;4.20;;
25637;SDS011;13496;51.040;13.680;2023-03-01T14:00:05;5.23;;;4.73;;
25637;SDS011;13496;51.040;13.680;2023-03-01T14:05:09;4.80;;;4.40;;
25637;SDS011;13496;51.040;13.680;2023-03-01T14:10:12;6.03;;;4.80;;
25637;SDS011;13496;51.040;13.680;2023-03-01T14:15:16;4.80;;;4.40;;
25637;SDS011;13496;51.040;13.680;2023-03-01T14:20:22;5.17;;;4.67;;
25637;SDS011;13496;51.040;13.680;2023-03-01T14:25:33;5.13;;;4.63;;
25637;SDS011;13496;51.040;13.680;2023-03-01T14:31:25;4.77;;;4.33;;
25637;SDS011;13496;51.040;13.680;2023-03-01T14:41:15;5.00;;;4.50;;
25637;SDS011;13496;51.040;13.680;2023-03-01T14:46:31;5.03;;;4.53;;
25637;SDS011;13496;51.040;13.680;2023-03-01T14:51:37;4.67;;;4.27;;
25637;SDS011;13496;51.040;13.680;2023-03-01T14:56:43;5.00;;;4.53;;
25637;SDS011;13496;51.040;13.680;2023-03-01T15:01:47;4.73;;;4.33;;
25637;SDS011;13496;51.040;13.680;2023-03-01T15:06:50;5.07;;;4.53;;
25637;SDS011;13496;51.040;13.680;2023-03-01T15:11:54;4.85;;;4.32;;
25637;SDS011;13496;51.040;13.680;2023-03-01T15:16:55;4.83;;;4.37;;
25637;SDS011;13496;51.040;13.680;2023-03-01T15:21:57;4.73;;;4.33;;
25637;SDS011;13496;51.040;13.680;2023-03-01T15:27:00;4.90;;;4.50;;
25637;SDS011;13496;51.040;13.680;2023-03-01T15:37:48;4.90;;;4.50;;
25637;SDS011;13496;51.040;13.680;2023-03-01T15:42:51;4.97;;;4.50;;
25637;SDS011;13496;51.040;13.680;2023-03-01T15:48:03;4.73;;;4.23;;
25637;SDS011;13496;51.040;13.680;2023-03-01T15:53:08;4.77;;;4.27;;
25637;SDS011;13496;51.040;13.680;2023-03-01T15:58:13;5.13;;;4.57;;
25637;SDS011;13496;51.040;13.680;2023-03-01T16:03:18;4.97;;;4.20;;
25637;SDS011;13496;51.040;13.680;2023-03-01T16:08:22;5.67;;;4.33;;
25637;SDS011;13496;51.040;13.680;2023-03-01T16:13:24;4.87;;;4.47;;
25637;SDS011;13496;51.040;13.680;2023-03-01T16:18:26;4.63;;;4.23;;
25637;SDS011;13496;51.040;13.680;2023-03-01T16:23:28;4.80;;;4.33;;
25637;SDS011;13496;51.040;13.680;2023-03-01T16:28:29;4.60;;;4.20;;
25637;SDS011;13496;51.040;13.680;2023-03-01T16:33:31;5.30;;;4.57;;
25637;SDS011;13496;51.040;13.680;2023-03-01T16:38:33;4.77;;;4.37;;
25637;SDS011;13496;51.040;13.680;2023-03-01T16:43:35;4.57;;;4.17;;
25637;SDS011;13496;51.040;13.680;2023-03-01T16:48:37;4.87;;;4.37;;
25637;SDS011;13496;51.040;13.680;2023-03-01T16:53:39;4.40;;;4.00;;
25637;SDS011;13496;51.040;13.680;2023-03-01T16:58:42;4.87;;;4.37;;
25637;SDS011;13496;51.040;13.680;2023-03-01T17:03:44;5.47;;;4.97;;
25637;SDS011;13496;51.040;13.680;2023-03-01T17:08:47;5.33;;;4.77;;
25637;SDS011;13496;51.040;13.680;2023-03-01T17:13:49;4.97;;;4.30;;
25637;SDS011;13496;51.040;13.680;2023-03-01T17:18:50;4.40;;;4.00;;
25637;SDS011;13496;51.040;13.680;2023-03-01T17:23:54;5.10;;;4.50;;
25637;SDS011;13496;51.040;13.680;2023-03-01T17:28:57;5.03;;;4.57;;
25637;SDS011;13496;51.040;13.680;2023-03-01T17:33:59;4.70;;;4.30;;
25637;SDS011;13496;51.040;13.680;2023-03-01T17:39:01;7.33;;;6.63;;
25637;SDS011;13496;51.040;13.680;2023-03-01T17:44:02;11.00;;;8.73;;
25637;SDS011;13496;51.040;13.680;2023-03-01T17:49:04;19.40;;;14.80;;
25637;SDS011;13496;51.040;13.680;2023-03-01T17:54:06;17.87;;;12.23;;
25637;SDS011;13496;51.040;13.680;2023-03-01T17:59:08;24.40;;;17.17;;
25637;SDS011;13496;51.040;13.680;2023-03-01T18:04:09;26.47;;;20.13;;
25637;SDS011;13496;51.040;13.680;2023-03-01T18:09:11;25.87;;;20.33;;
25637;SDS011;13496;51.040;13.680;2023-03-01T18:14:13;27.00;;;20.67;;
25637;SDS011;13496;51.040;13.680;2023-03-01T18:19:15;33.83;;;22.77;;
25637;SDS011;13496;51.040;13.680;2023-03-01T18:24:16;31.57;;;23.10;;
25637;SDS011;13496;51.040;13.680;2023-03-01T18:29:18;36.37;;;26.87;;
25637;SDS011;13496;51.040;13.680;2023-03-01T18:34:20;35.83;;;27.63;;
25637;SDS011;13496;51.040;13.680;2023-03-01T18:39:22;39.60;;;28.43;;
25637;SDS011;13496;51.040;13.680;2023-03-01T18:44:24;39.23;;;29.60;;
25637;SDS011;13496;51.040;13.680;2023-03-01T18:49:26;40.07;;;31.10;;
25637;SDS011;13496;51.040;13.680;2023-03-01T18:54:27;45.13;;;32.10;;
25637;SDS011;13496;51.040;13.680;2023-03-01T18:59:29;45.07;;;32.37;;
25637;SDS011;13496;51.040;13.680;2023-03-01T19:04:31;49.80;;;34.30;;
25637;SDS011;13496;51.040;13.680;2023-03-01T19:09:32;51.07;;;37.37;;
25637;SDS011;13496;51.040;13.680;2023-03-01T19:14:34;50.07;;;35.13;;
25637;SDS011;13496;51.040;13.680;2023-03-01T19:19:37;49.53;;;36.77;;
25637;SDS011;13496;51.040;13.680;2023-03-01T19:24:39;49.33;;;36.30;;
25637;SDS011;13496;51.040;13.680;2023-03-01T19:29:40;50.43;;;37.47;;
25637;SDS011;13496;51.040;13.680;2023-03-01T19:34:42;52.87;;;38.27;;
25637;SDS011;13496;51.040;13.680;2023-03-01T19:39:44;53.97;;;37.93;;
25637;SDS011;13496;51.040;13.680;2023-03-01T19:44:46;53.27;;;38.33;;
25637;SDS011;13496;51.040;13.680;2023-03-01T19:49:47;51.43;;;37.80;;
25637;SDS011;13496;51.040;13.680;2023-03-01T19:54:49;51.20;;;38.37;;
25637;SDS011;13496;51.040;13.680;2023-03-01T19:59:50;49.70;;;37.03;;
25637;SDS011;13496;51.040;13.680;2023-03-01T20:04:54;51.50;;;38.00;;
25637;SDS011;13496;51.040;13.680;2023-03-01T20:09:56;51.00;;;39.47;;
25637;SDS011;13496;51.040;13.680;2023-03-01T20:14:58;51.70;;;38.17;;
25637;SDS011;13496;51.040;13.680;2023-03-01T20:20:00;52.73;;;39.80;;
25637;SDS011;13496;51.040;13.680;2023-03-01T20:25:01;55.80;;;39.63;;
25637;SDS011;13496;51.040;13.680;2023-03-01T20:30:04;54.10;;;39.37;;
25637;SDS011;13496;51.040;13.680;2023-03-01T20:35:06;51.53;;;38.67;;
25637;SDS011;13496;51.040;13.680;2023-03-01T20:40:08;52.67;;;37.20;;
25637;SDS011;13496;51.040;13.680;2023-03-01T20:45:10;51.00;;;37.60;;
25637;SDS011;13496;51.040;13.680;2023-03-01T20:50:13;51.23;;;38.30;;
25637;SDS011;13496;51.040;13.680;2023-03-01T20:55:15;48.23;;;36.23;;
25637;SDS011;13496;51.040;13.680;2023-03-01T21:00:17;50.23;;;36.33;;
25637;SDS011;13496;51.040;13.680;2023-03-01T21:05:18;49.73;;;36.30;;
25637;SDS011;13496;51.040;13.680;2023-03-01T21:10:20;46.67;;;36.97;;
25637;SDS011;13496;51.040;13.680;2023-03-01T21:15:22;48.40;;;36.63;;
25637;SDS011;13496;51.040;13.680;2023-03-01T21:20:24;50.07;;;36.47;;
25637;SDS011;13496;51.040;13.680;2023-03-01T21:25:25;46.60;;;35.73;;
25637;SDS011;13496;51.040;13.680;2023-03-01T21:30:35;46.40;;;35.53;;
25637;SDS011;13496;51.040;13.680;2023-03-01T21:35:36;43.40;;;34.53;;
25637;SDS011;13496;51.040;13.680;2023-03-01T21:40:38;47.10;;;34.73;;
25637;SDS011;13496;51.040;13.680;2023-03-01T21:45:40;45.10;;;35.87;;
25637;SDS011;13496;51.040;13.680;2023-03-01T21:50:41;43.10;;;33.50;;
25637;SDS011;13496;51.040;13.680;2023-03-01T21:55:46;45.37;;;34.30;;
25637;SDS011;13496;51.040;13.680;2023-03-01T22:00:49;39.87;;;32.17;;
25637;SDS011;13496;51.040;13.680;2023-03-01T22:05:58;40.50;;;32.27;;
25637;SDS011;13496;51.040;13.680;2023-03-01T22:11:01;44.47;;;33.17;;
25637;SDS011;13496;51.040;13.680;2023-03-01T22:16:03;41.30;;;31.67;;
25637;SDS011;13496;51.040;13.680;2023-03-01T22:21:05;38.23;;;30.20;;
25637;SDS011;13496;51.040;13.680;2023-03-01T22:26:07;41.40;;;31.60;;
25637;SDS011;13496;51.040;13.680;2023-03-01T22:31:20;38.83;;;30.67;;
25637;SDS011;13496;51.040;13.680;2023-03-01T22:36:22;37.17;;;30.23;;
25637;SDS011;13496;51.040;13.680;2023-03-01T22:41:24;38.93;;;29.37;;
25637;SDS011;13496;51.040;13.680;2023-03-01T22:46:33;35.43;;;29.87;;
25637;SDS011;13496;51.040;13.680;2023-03-01T22:51:35;34.97;;;27.90;;
25637;SDS011;13496;51.040;13.680;2023-03-01T22:56:38;34.67;;;27.73;;
25637;SDS011;13496;51.040;13.680;2023-03-01T23:01:41;33.73;;;27.63;;
25637;SDS011;13496;51.040;13.680;2023-03-01T23:06:44;32.97;;;26.17;;
25637;SDS011;13496;51.040;13.680;2023-03-01T23:11:56;32.37;;;26.73;;
25637;SDS011;13496;51.040;13.680;2023-03-01T23:16:59;31.67;;;26.33;;
25637;SDS011;13496;51.040;13.680;2023-03-01T23:22:02;33.03;;;26.03;;
25637;SDS011;13496;51.040;13.680;2023-03-01T23:27:03;29.13;;;24.90;;
25637;SDS011;13496;51.040;13.680;2023-03-01T23:32:05;30.57;;;25.13;;
25637;SDS011;13496;51.040;13.680;2023-03-01T23:37:07;30.87;;;25.13;;
25637;SDS011;13496;51.040;13.680;2023-03-01T23:42:10;28.67;;;23.40;;
25637;SDS011;13496;51.040;13.680;2023-03-01T23:47:12;27.70;;;23.13;;
25637;SDS011;13496;51.040;13.680;2023-03-01T23:52:13;28.00;;;23.37;;
25637;SDS011;13496;51.040;13.680;2023-03-01T23:57:17;26.90;;;22.83;;
